sensor_id;sensor_type;location;lat;lon;timestamp;temperature;humidity
22680;DHT22;11507;44.858;10.374;2022-12-04T00:00:27;7.80;99.90
22680;DHT22;11507;44.858;10.374;2022-12-04T00:03:08;7.70;99.90
22680;DHT22;11507;44.858;10.374;2022-12-04T00:05:34;7.70;99.90
22680;DHT22;11507;44.858;10.374;2022-12-04T00:08:00;7.70;99.90
22680;DHT22;11507;44.858;10.374;2022-12-04T00:10:26;7.70;99.90
22680;DHT22;11507;44.858;10.374;2022-12-04T00:12:53;7.70;99.90
22680;DHT22;11507;44.858;10.374;2022-12-04T00:15:19;7.70;99.90
22680;DHT22;11507;44.858;10.374;2022-12-04T00:17:48;7.70;99.90
22680;DHT22;11507;44.858;10.374;2022-12-04T00:20:15;7.80;99.90
22680;DHT22;11507;44.858;10.374;2022-12-04T00:22:45;7.70;99.90
22680;DHT22;11507;44.858;10.374;2022-12-04T00:25:11;7.70;99.90
22680;DHT22;11507;44.858;10.374;2022-12-04T00:27:41;7.70;99.90
22680;DHT22;11507;44.858;10.374;2022-12-04T00:30:08;7.80;99.90
22680;DHT22;11507;44.858;10.374;2022-12-04T00:32:34;7.80;99.90
22680;DHT22;11507;44.858;10.374;2022-12-04T00:35:00;7.80;99.90
22680;DHT22;11507;44.858;10.374;2022-12-04T00:37:26;7.80;99.90
22680;DHT22;11507;44.858;10.374;2022-12-04T00:40:12;7.80;99.90
22680;DHT22;11507;44.858;10.374;2022-12-04T00:42:43;7.80;99.90
22680;DHT22;11507;44.858;10.374;2022-12-04T00:45:10;7.70;99.90
22680;DHT22;11507;44.858;10.374;2022-12-04T00:47:35;7.80;99.90
22680;DHT22;11507;44.858;10.374;2022-12-04T00:50:02;7.80;99.90
22680;DHT22;11507;44.858;10.374;2022-12-04T00:52:29;7.80;99.90
22680;DHT22;11507;44.858;10.374;2022-12-04T00:54:55;7.80;99.90
22680;DHT22;11507;44.858;10.374;2022-12-04T00:57:24;7.80;99.90
22680;DHT22;11507;44.858;10.374;2022-12-04T00:59:49;7.80;99.90
22680;DHT22;11507;44.858;10.374;2022-12-04T01:02:16;7.80;99.90
22680;DHT22;11507;44.858;10.374;2022-12-04T01:04:42;7.70;99.90
22680;DHT22;11507;44.858;10.374;2022-12-04T01:07:08;7.70;99.90
22680;DHT22;11507;44.858;10.374;2022-12-04T01:09:33;7.70;99.90
22680;DHT22;11507;44.858;10.374;2022-12-04T01:12:00;7.70;99.90
22680;DHT22;11507;44.858;10.374;2022-12-04T01:14:26;7.70;99.90
22680;DHT22;11507;44.858;10.374;2022-12-04T01:16:53;7.70;99.90
22680;DHT22;11507;44.858;10.374;2022-12-04T01:19:20;7.70;99.90
22680;DHT22;11507;44.858;10.374;2022-12-04T01:21:46;7.70;99.90
22680;DHT22;11507;44.858;10.374;2022-12-04T01:24:12;7.80;99.90
22680;DHT22;11507;44.858;10.374;2022-12-04T01:26:38;7.80;99.90
22680;DHT22;11507;44.858;10.374;2022-12-04T01:29:04;7.80;99.90
22680;DHT22;11507;44.858;10.374;2022-12-04T01:31:30;7.70;99.90
22680;DHT22;11507;44.858;10.374;2022-12-04T01:33:58;7.70;99.90
22680;DHT22;11507;44.858;10.374;2022-12-04T01:36:26;7.80;99.90
22680;DHT22;11507;44.858;10.374;2022-12-04T01:38:53;7.70;99.90
22680;DHT22;11507;44.858;10.374;2022-12-04T01:41:23;7.70;99.90
22680;DHT22;11507;44.858;10.374;2022-12-04T01:44:12;7.70;99.90
22680;DHT22;11507;44.858;10.374;2022-12-04T01:46:41;7.70;99.90
22680;DHT22;11507;44.858;10.374;2022-12-04T01:49:14;7.70;99.90
22680;DHT22;11507;44.858;10.374;2022-12-04T01:51:47;7.70;99.90
22680;DHT22;11507;44.858;10.374;2022-12-04T01:54:24;7.70;99.90
22680;DHT22;11507;44.858;10.374;2022-12-04T01:57:00;7.60;99.90
22680;DHT22;11507;44.858;10.374;2022-12-04T01:59:34;7.70;99.90
22680;DHT22;11507;44.858;10.374;2022-12-04T02:02:09;7.70;99.90
22680;DHT22;11507;44.858;10.374;2022-12-04T02:04:39;7.70;99.90
22680;DHT22;11507;44.858;10.374;2022-12-04T02:07:05;7.70;99.90
22680;DHT22;11507;44.858;10.374;2022-12-04T02:09:31;7.70;99.90
22680;DHT22;11507;44.858;10.374;2022-12-04T02:12:16;7.70;99.90
22680;DHT22;11507;44.858;10.374;2022-12-04T02:20:04;7.70;99.90
22680;DHT22;11507;44.858;10.374;2022-12-04T02:31:21;7.60;99.90
22680;DHT22;11507;44.858;10.374;2022-12-04T02:33:53;7.60;99.90
22680;DHT22;11507;44.858;10.374;2022-12-04T02:36:30;7.60;99.90
22680;DHT22;11507;44.858;10.374;2022-12-04T02:39:04;7.60;99.90
22680;DHT22;11507;44.858;10.374;2022-12-04T02:42:03;7.50;99.90
22680;DHT22;11507;44.858;10.374;2022-12-04T02:44:44;7.50;99.90
22680;DHT22;11507;44.858;10.374;2022-12-04T02:47:13;7.40;99.90
22680;DHT22;11507;44.858;10.374;2022-12-04T02:49:58;7.30;99.90
22680;DHT22;11507;44.858;10.374;2022-12-04T02:52:39;7.30;99.90
22680;DHT22;11507;44.858;10.374;2022-12-04T02:55:15;7.30;99.90
22680;DHT22;11507;44.858;10.374;2022-12-04T02:57:45;7.20;99.90
22680;DHT22;11507;44.858;10.374;2022-12-04T03:00:13;7.20;99.90
22680;DHT22;11507;44.858;10.374;2022-12-04T03:02:54;7.20;99.90
22680;DHT22;11507;44.858;10.374;2022-12-04T03:05:25;7.20;99.90
22680;DHT22;11507;44.858;10.374;2022-12-04T03:08:04;7.20;99.90
22680;DHT22;11507;44.858;10.374;2022-12-04T03:10:35;7.20;99.90
22680;DHT22;11507;44.858;10.374;2022-12-04T03:13:10;7.20;99.90
22680;DHT22;11507;44.858;10.374;2022-12-04T03:15:44;7.20;99.90
22680;DHT22;11507;44.858;10.374;2022-12-04T03:18:38;7.20;99.90
22680;DHT22;11507;44.858;10.374;2022-12-04T03:21:16;7.10;99.90
22680;DHT22;11507;44.858;10.374;2022-12-04T03:24:10;7.10;99.90
22680;DHT22;11507;44.858;10.374;2022-12-04T03:26:50;7.20;99.90
22680;DHT22;11507;44.858;10.374;2022-12-04T03:37:16;7.10;99.90
22680;DHT22;11507;44.858;10.374;2022-12-04T03:44:45;7.10;99.90
22680;DHT22;11507;44.858;10.374;2022-12-04T03:47:19;7.10;99.90
22680;DHT22;11507;44.858;10.374;2022-12-04T03:49:56;7.10;99.90
22680;DHT22;11507;44.858;10.374;2022-12-04T03:52:40;7.10;99.90
22680;DHT22;11507;44.858;10.374;2022-12-04T03:55:22;7.10;99.90
22680;DHT22;11507;44.858;10.374;2022-12-04T03:57:50;7.10;99.90
22680;DHT22;11507;44.858;10.374;2022-12-04T04:00:21;7.20;99.90
22680;DHT22;11507;44.858;10.374;2022-12-04T04:02:53;7.20;99.90
22680;DHT22;11507;44.858;10.374;2022-12-04T04:05:21;7.10;99.90
22680;DHT22;11507;44.858;10.374;2022-12-04T04:07:59;7.10;99.90
22680;DHT22;11507;44.858;10.374;2022-12-04T04:10:46;7.10;99.90
22680;DHT22;11507;44.858;10.374;2022-12-04T04:13:17;7.10;99.90
22680;DHT22;11507;44.858;10.374;2022-12-04T04:16:04;7.10;99.90
22680;DHT22;11507;44.858;10.374;2022-12-04T04:18:51;7.10;99.90
22680;DHT22;11507;44.858;10.374;2022-12-04T04:21:38;7.10;99.90
22680;DHT22;11507;44.858;10.374;2022-12-04T04:24:33;7.10;99.90
22680;DHT22;11507;44.858;10.374;2022-12-04T04:27:00;7.10;99.90
22680;DHT22;11507;44.858;10.374;2022-12-04T04:29:26;7.10;99.90
22680;DHT22;11507;44.858;10.374;2022-12-04T04:32:22;7.10;99.90
22680;DHT22;11507;44.858;10.374;2022-12-04T04:35:16;7.10;99.90
22680;DHT22;11507;44.858;10.374;2022-12-04T04:43:17;7.10;99.90
22680;DHT22;11507;44.858;10.374;2022-12-04T04:45:56;7.10;99.90
22680;DHT22;11507;44.858;10.374;2022-12-04T04:48:46;7.10;99.90
22680;DHT22;11507;44.858;10.374;2022-12-04T04:51:13;7.20;99.90
22680;DHT22;11507;44.858;10.374;2022-12-04T04:53:44;7.20;99.90
22680;DHT22;11507;44.858;10.374;2022-12-04T04:56:12;7.20;99.90
22680;DHT22;11507;44.858;10.374;2022-12-04T04:58:38;7.10;99.90
22680;DHT22;11507;44.858;10.374;2022-12-04T05:01:10;7.20;99.90
22680;DHT22;11507;44.858;10.374;2022-12-04T05:03:36;7.10;99.90
22680;DHT22;11507;44.858;10.374;2022-12-04T05:06:02;7.10;99.90
22680;DHT22;11507;44.858;10.374;2022-12-04T05:08:28;7.10;99.90
22680;DHT22;11507;44.858;10.374;2022-12-04T05:10:55;7.10;99.90
22680;DHT22;11507;44.858;10.374;2022-12-04T05:13:21;7.10;99.90
22680;DHT22;11507;44.858;10.374;2022-12-04T05:15:57;7.10;99.90
22680;DHT22;11507;44.858;10.374;2022-12-04T05:18:23;7.10;99.90
22680;DHT22;11507;44.858;10.374;2022-12-04T05:20:49;7.10;99.90
22680;DHT22;11507;44.858;10.374;2022-12-04T05:23:15;7.10;99.90
22680;DHT22;11507;44.858;10.374;2022-12-04T05:25:41;7.10;99.90
22680;DHT22;11507;44.858;10.374;2022-12-04T05:28:08;7.10;99.90
22680;DHT22;11507;44.858;10.374;2022-12-04T05:30:34;7.10;99.90
22680;DHT22;11507;44.858;10.374;2022-12-04T05:33:00;7.10;99.90
22680;DHT22;11507;44.858;10.374;2022-12-04T05:35:26;7.10;99.90
22680;DHT22;11507;44.858;10.374;2022-12-04T05:37:51;7.10;99.90
22680;DHT22;11507;44.858;10.374;2022-12-04T05:40:17;7.10;99.90
22680;DHT22;11507;44.858;10.374;2022-12-04T05:42:43;7.10;99.90
22680;DHT22;11507;44.858;10.374;2022-12-04T05:45:10;7.10;99.90
22680;DHT22;11507;44.858;10.374;2022-12-04T05:47:39;7.10;99.90
22680;DHT22;11507;44.858;10.374;2022-12-04T05:50:06;7.10;99.90
22680;DHT22;11507;44.858;10.374;2022-12-04T05:52:32;7.10;99.90
22680;DHT22;11507;44.858;10.374;2022-12-04T05:54:57;7.10;99.90
22680;DHT22;11507;44.858;10.374;2022-12-04T05:57:26;7.10;99.90
22680;DHT22;11507;44.858;10.374;2022-12-04T05:59:52;7.10;99.90
22680;DHT22;11507;44.858;10.374;2022-12-04T06:02:17;7.10;99.90
22680;DHT22;11507;44.858;10.374;2022-12-04T06:04:44;7.10;99.90
22680;DHT22;11507;44.858;10.374;2022-12-04T06:07:10;7.10;99.90
22680;DHT22;11507;44.858;10.374;2022-12-04T06:09:39;7.10;99.90
22680;DHT22;11507;44.858;10.374;2022-12-04T06:12:05;7.10;99.90
22680;DHT22;11507;44.858;10.374;2022-12-04T06:14:31;7.10;99.90
22680;DHT22;11507;44.858;10.374;2022-12-04T06:16:59;7.10;99.90
22680;DHT22;11507;44.858;10.374;2022-12-04T06:19:25;7.10;99.90
22680;DHT22;11507;44.858;10.374;2022-12-04T06:21:51;7.10;99.90
22680;DHT22;11507;44.858;10.374;2022-12-04T06:24:20;7.10;99.90
22680;DHT22;11507;44.858;10.374;2022-12-04T06:26:47;7.10;99.90
22680;DHT22;11507;44.858;10.374;2022-12-04T06:29:14;7.10;99.90
22680;DHT22;11507;44.858;10.374;2022-12-04T06:31:41;7.10;99.90
22680;DHT22;11507;44.858;10.374;2022-12-04T06:34:08;7.10;99.90
22680;DHT22;11507;44.858;10.374;2022-12-04T06:36:34;7.10;99.90
22680;DHT22;11507;44.858;10.374;2022-12-04T06:39:01;7.10;99.90
22680;DHT22;11507;44.858;10.374;2022-12-04T06:41:27;7.10;99.90
22680;DHT22;11507;44.858;10.374;2022-12-04T06:43:54;7.10;99.90
22680;DHT22;11507;44.858;10.374;2022-12-04T06:46:30;7.10;99.90
22680;DHT22;11507;44.858;10.374;2022-12-04T06:48:58;7.10;99.90
22680;DHT22;11507;44.858;10.374;2022-12-04T06:51:32;7.10;99.90
22680;DHT22;11507;44.858;10.374;2022-12-04T06:54:00;7.10;99.90
22680;DHT22;11507;44.858;10.374;2022-12-04T06:56:28;7.10;99.90
22680;DHT22;11507;44.858;10.374;2022-12-04T06:58:56;7.10;99.90
22680;DHT22;11507;44.858;10.374;2022-12-04T07:01:25;7.20;99.90
22680;DHT22;11507;44.858;10.374;2022-12-04T07:03:52;7.20;99.90
22680;DHT22;11507;44.858;10.374;2022-12-04T07:06:31;7.20;99.90
22680;DHT22;11507;44.858;10.374;2022-12-04T07:08:59;7.20;99.90
22680;DHT22;11507;44.858;10.374;2022-12-04T07:11:26;7.10;99.90
22680;DHT22;11507;44.858;10.374;2022-12-04T07:13:55;7.10;99.90
22680;DHT22;11507;44.858;10.374;2022-12-04T07:16:23;7.10;99.90
22680;DHT22;11507;44.858;10.374;2022-12-04T07:18:50;7.20;99.90
22680;DHT22;11507;44.858;10.374;2022-12-04T07:21:20;7.20;99.90
22680;DHT22;11507;44.858;10.374;2022-12-04T07:23:54;7.20;99.90
22680;DHT22;11507;44.858;10.374;2022-12-04T07:26:24;7.20;99.90
22680;DHT22;11507;44.858;10.374;2022-12-04T07:28:52;7.10;99.90
22680;DHT22;11507;44.858;10.374;2022-12-04T07:31:25;7.20;99.90
22680;DHT22;11507;44.858;10.374;2022-12-04T07:33:51;7.20;99.90
22680;DHT22;11507;44.858;10.374;2022-12-04T07:36:20;7.20;99.90
22680;DHT22;11507;44.858;10.374;2022-12-04T07:38:47;7.20;99.90
22680;DHT22;11507;44.858;10.374;2022-12-04T07:41:12;7.20;99.90
22680;DHT22;11507;44.858;10.374;2022-12-04T07:43:39;7.20;99.90
22680;DHT22;11507;44.858;10.374;2022-12-04T07:46:08;7.20;99.90
22680;DHT22;11507;44.858;10.374;2022-12-04T07:48:34;7.30;99.90
22680;DHT22;11507;44.858;10.374;2022-12-04T07:51:01;7.20;99.90
22680;DHT22;11507;44.858;10.374;2022-12-04T07:53:29;7.20;99.90
22680;DHT22;11507;44.858;10.374;2022-12-04T07:55:55;7.20;99.90
22680;DHT22;11507;44.858;10.374;2022-12-04T07:58:21;7.20;99.90
22680;DHT22;11507;44.858;10.374;2022-12-04T08:00:47;7.20;99.90
22680;DHT22;11507;44.858;10.374;2022-12-04T08:03:13;7.20;99.90
22680;DHT22;11507;44.858;10.374;2022-12-04T08:05:39;7.20;99.90
22680;DHT22;11507;44.858;10.374;2022-12-04T08:08:05;7.20;99.90
22680;DHT22;11507;44.858;10.374;2022-12-04T08:10:31;7.20;99.90
22680;DHT22;11507;44.858;10.374;2022-12-04T08:12:59;7.20;99.90
22680;DHT22;11507;44.858;10.374;2022-12-04T08:15:25;7.20;99.90
22680;DHT22;11507;44.858;10.374;2022-12-04T08:17:51;7.20;99.90
22680;DHT22;11507;44.858;10.374;2022-12-04T08:20:17;7.20;99.90
22680;DHT22;11507;44.858;10.374;2022-12-04T08:25:12;7.20;99.90
22680;DHT22;11507;44.858;10.374;2022-12-04T08:27:38;7.20;99.90
22680;DHT22;11507;44.858;10.374;2022-12-04T08:30:06;7.20;99.90
22680;DHT22;11507;44.858;10.374;2022-12-04T08:32:36;7.20;99.90
22680;DHT22;11507;44.858;10.374;2022-12-04T08:35:07;7.20;99.90
22680;DHT22;11507;44.858;10.374;2022-12-04T08:37:33;7.20;99.90
22680;DHT22;11507;44.858;10.374;2022-12-04T08:40:00;7.20;99.90
22680;DHT22;11507;44.858;10.374;2022-12-04T08:42:25;7.20;99.90
22680;DHT22;11507;44.858;10.374;2022-12-04T08:44:58;7.20;99.90
22680;DHT22;11507;44.858;10.374;2022-12-04T08:47:23;7.30;99.90
22680;DHT22;11507;44.858;10.374;2022-12-04T08:49:51;7.30;99.90
22680;DHT22;11507;44.858;10.374;2022-12-04T08:52:16;7.30;99.90
22680;DHT22;11507;44.858;10.374;2022-12-04T08:54:42;7.30;99.90
22680;DHT22;11507;44.858;10.374;2022-12-04T08:57:08;7.30;99.90
22680;DHT22;11507;44.858;10.374;2022-12-04T08:59:33;7.30;99.90
22680;DHT22;11507;44.858;10.374;2022-12-04T09:01:59;7.40;99.90
22680;DHT22;11507;44.858;10.374;2022-12-04T09:04:25;7.40;99.90
22680;DHT22;11507;44.858;10.374;2022-12-04T09:06:53;7.40;99.90
22680;DHT22;11507;44.858;10.374;2022-12-04T09:09:18;7.50;99.90
22680;DHT22;11507;44.858;10.374;2022-12-04T09:11:44;7.50;99.90
22680;DHT22;11507;44.858;10.374;2022-12-04T09:14:11;7.50;99.90
22680;DHT22;11507;44.858;10.374;2022-12-04T09:16:37;7.50;99.90
22680;DHT22;11507;44.858;10.374;2022-12-04T09:19:04;7.50;99.90
22680;DHT22;11507;44.858;10.374;2022-12-04T09:21:29;7.50;99.90
22680;DHT22;11507;44.858;10.374;2022-12-04T09:23:58;7.50;99.90
22680;DHT22;11507;44.858;10.374;2022-12-04T09:26:32;7.60;99.90
22680;DHT22;11507;44.858;10.374;2022-12-04T09:29:00;7.60;99.90
22680;DHT22;11507;44.858;10.374;2022-12-04T09:31:27;7.70;99.90
22680;DHT22;11507;44.858;10.374;2022-12-04T09:33:53;7.70;99.90
22680;DHT22;11507;44.858;10.374;2022-12-04T09:36:19;7.80;99.90
22680;DHT22;11507;44.858;10.374;2022-12-04T09:38:48;7.80;99.90
22680;DHT22;11507;44.858;10.374;2022-12-04T09:44:26;8.00;99.90
22680;DHT22;11507;44.858;10.374;2022-12-04T09:47:07;8.00;99.90
22680;DHT22;11507;44.858;10.374;2022-12-04T09:50:19;8.20;99.90
22680;DHT22;11507;44.858;10.374;2022-12-04T09:53:02;8.20;99.90
22680;DHT22;11507;44.858;10.374;2022-12-04T09:56:20;8.30;99.90
22680;DHT22;11507;44.858;10.374;2022-12-04T09:58:50;8.40;99.90
22680;DHT22;11507;44.858;10.374;2022-12-04T10:01:48;8.40;99.90
22680;DHT22;11507;44.858;10.374;2022-12-04T10:04:13;8.50;99.90
22680;DHT22;11507;44.858;10.374;2022-12-04T10:07:07;8.60;99.90
22680;DHT22;11507;44.858;10.374;2022-12-04T10:09:50;8.60;99.90
22680;DHT22;11507;44.858;10.374;2022-12-04T10:23:58;9.20;99.90
22680;DHT22;11507;44.858;10.374;2022-12-04T10:26:21;9.30;99.90
22680;DHT22;11507;44.858;10.374;2022-12-04T10:29:03;9.50;99.90
22680;DHT22;11507;44.858;10.374;2022-12-04T10:31:32;9.70;99.90
22680;DHT22;11507;44.858;10.374;2022-12-04T10:34:15;9.70;99.90
22680;DHT22;11507;44.858;10.374;2022-12-04T10:36:49;9.80;99.90
22680;DHT22;11507;44.858;10.374;2022-12-04T10:44:17;9.70;99.90
22680;DHT22;11507;44.858;10.374;2022-12-04T10:46:43;9.70;99.90
22680;DHT22;11507;44.858;10.374;2022-12-04T10:49:20;9.70;99.90
22680;DHT22;11507;44.858;10.374;2022-12-04T10:51:47;9.70;99.90
22680;DHT22;11507;44.858;10.374;2022-12-04T10:59:27;9.60;99.90
22680;DHT22;11507;44.858;10.374;2022-12-04T11:02:04;9.50;99.90
22680;DHT22;11507;44.858;10.374;2022-12-04T11:04:35;9.70;99.90
22680;DHT22;11507;44.858;10.374;2022-12-04T11:07:03;10.10;99.90
22680;DHT22;11507;44.858;10.374;2022-12-04T11:09:31;10.70;99.90
22680;DHT22;11507;44.858;10.374;2022-12-04T11:12:24;11.10;99.90
22680;DHT22;11507;44.858;10.374;2022-12-04T11:17:29;11.60;99.90
22680;DHT22;11507;44.858;10.374;2022-12-04T11:20:08;11.70;99.90
22680;DHT22;11507;44.858;10.374;2022-12-04T11:22:50;11.70;99.90
22680;DHT22;11507;44.858;10.374;2022-12-04T11:25:19;12.20;99.90
22680;DHT22;11507;44.858;10.374;2022-12-04T11:27:54;12.90;99.90
22680;DHT22;11507;44.858;10.374;2022-12-04T11:30:30;13.70;99.90
22680;DHT22;11507;44.858;10.374;2022-12-04T11:32:57;14.40;99.90
22680;DHT22;11507;44.858;10.374;2022-12-04T11:35:26;15.50;99.90
22680;DHT22;11507;44.858;10.374;2022-12-04T11:38:14;15.80;99.90
22680;DHT22;11507;44.858;10.374;2022-12-04T11:41:02;15.50;99.90
22680;DHT22;11507;44.858;10.374;2022-12-04T11:43:31;14.80;99.90
22680;DHT22;11507;44.858;10.374;2022-12-04T11:46:03;14.50;99.90
22680;DHT22;11507;44.858;10.374;2022-12-04T11:48:41;13.60;99.90
22680;DHT22;11507;44.858;10.374;2022-12-04T11:54:40;12.90;99.90
22680;DHT22;11507;44.858;10.374;2022-12-04T12:02:49;12.80;99.90
22680;DHT22;11507;44.858;10.374;2022-12-04T12:11:29;14.30;99.90
22680;DHT22;11507;44.858;10.374;2022-12-04T12:14:17;14.20;99.90
22680;DHT22;11507;44.858;10.374;2022-12-04T12:30:23;12.30;99.90
22680;DHT22;11507;44.858;10.374;2022-12-04T12:32:53;12.30;99.90
22680;DHT22;11507;44.858;10.374;2022-12-04T12:35:26;12.30;99.90
22680;DHT22;11507;44.858;10.374;2022-12-04T12:38:06;12.10;99.90
22680;DHT22;11507;44.858;10.374;2022-12-04T12:40:55;12.00;99.90
22680;DHT22;11507;44.858;10.374;2022-12-04T12:43:36;11.80;99.90
22680;DHT22;11507;44.858;10.374;2022-12-04T12:46:12;11.70;99.90
22680;DHT22;11507;44.858;10.374;2022-12-04T12:48:51;11.60;99.90
22680;DHT22;11507;44.858;10.374;2022-12-04T12:56:50;11.40;99.90
22680;DHT22;11507;44.858;10.374;2022-12-04T12:59:24;11.20;99.90
22680;DHT22;11507;44.858;10.374;2022-12-04T13:11:27;10.90;99.90
22680;DHT22;11507;44.858;10.374;2022-12-04T13:13:56;11.00;99.90
22680;DHT22;11507;44.858;10.374;2022-12-04T13:35:48;10.80;99.90
22680;DHT22;11507;44.858;10.374;2022-12-04T13:41:08;10.80;99.90
22680;DHT22;11507;44.858;10.374;2022-12-04T13:51:45;10.80;99.90
22680;DHT22;11507;44.858;10.374;2022-12-04T13:56:41;10.90;99.90
22680;DHT22;11507;44.858;10.374;2022-12-04T14:02:00;10.90;99.90
22680;DHT22;11507;44.858;10.374;2022-12-04T14:07:01;10.90;99.90
22680;DHT22;11507;44.858;10.374;2022-12-04T14:09:38;10.80;99.90
22680;DHT22;11507;44.858;10.374;2022-12-04T14:12:08;10.80;99.90
22680;DHT22;11507;44.858;10.374;2022-12-04T14:15:05;10.80;99.90
22680;DHT22;11507;44.858;10.374;2022-12-04T14:17:37;10.90;99.90
22680;DHT22;11507;44.858;10.374;2022-12-04T14:20:22;11.00;99.90
22680;DHT22;11507;44.858;10.374;2022-12-04T14:22:49;10.90;99.90
22680;DHT22;11507;44.858;10.374;2022-12-04T14:27:44;10.90;99.90
22680;DHT22;11507;44.858;10.374;2022-12-04T14:32:44;10.80;99.90
22680;DHT22;11507;44.858;10.374;2022-12-04T14:35:22;10.80;99.90
22680;DHT22;11507;44.858;10.374;2022-12-04T14:38:00;10.80;99.90
22680;DHT22;11507;44.858;10.374;2022-12-04T14:40:46;10.70;99.90
22680;DHT22;11507;44.858;10.374;2022-12-04T14:43:21;10.70;99.90
22680;DHT22;11507;44.858;10.374;2022-12-04T14:50:54;10.50;99.90
22680;DHT22;11507;44.858;10.374;2022-12-04T14:53:45;10.50;99.90
22680;DHT22;11507;44.858;10.374;2022-12-04T14:58:57;10.40;99.90
22680;DHT22;11507;44.858;10.374;2022-12-04T15:01:37;10.40;99.90
22680;DHT22;11507;44.858;10.374;2022-12-04T15:04:22;10.30;99.90
22680;DHT22;11507;44.858;10.374;2022-12-04T15:06:50;10.30;99.90
22680;DHT22;11507;44.858;10.374;2022-12-04T15:09:19;10.30;99.90
22680;DHT22;11507;44.858;10.374;2022-12-04T15:12:18;10.20;99.90
22680;DHT22;11507;44.858;10.374;2022-12-04T15:17:39;10.20;99.90
22680;DHT22;11507;44.858;10.374;2022-12-04T15:20:17;10.20;99.90
22680;DHT22;11507;44.858;10.374;2022-12-04T15:22:44;10.10;99.90
22680;DHT22;11507;44.858;10.374;2022-12-04T15:25:32;10.10;99.90
22680;DHT22;11507;44.858;10.374;2022-12-04T15:28:07;10.00;99.90
22680;DHT22;11507;44.858;10.374;2022-12-04T15:30:36;10.00;99.90
22680;DHT22;11507;44.858;10.374;2022-12-04T15:33:04;9.90;99.90
22680;DHT22;11507;44.858;10.374;2022-12-04T15:35:32;9.90;99.90
22680;DHT22;11507;44.858;10.374;2022-12-04T15:37:58;9.90;99.90
22680;DHT22;11507;44.858;10.374;2022-12-04T15:40:26;9.90;99.90
22680;DHT22;11507;44.858;10.374;2022-12-04T15:42:53;9.80;99.90
22680;DHT22;11507;44.858;10.374;2022-12-04T15:45:23;9.80;99.90
22680;DHT22;11507;44.858;10.374;2022-12-04T15:47:52;9.70;99.90
22680;DHT22;11507;44.858;10.374;2022-12-04T15:52:54;9.70;99.90
22680;DHT22;11507;44.858;10.374;2022-12-04T15:55:23;9.60;99.90
22680;DHT22;11507;44.858;10.374;2022-12-04T15:57:53;9.60;99.90
22680;DHT22;11507;44.858;10.374;2022-12-04T16:00:28;9.50;99.90
22680;DHT22;11507;44.858;10.374;2022-12-04T16:02:56;9.40;99.90
22680;DHT22;11507;44.858;10.374;2022-12-04T16:05:26;9.30;99.90
22680;DHT22;11507;44.858;10.374;2022-12-04T16:07:55;9.20;99.90
22680;DHT22;11507;44.858;10.374;2022-12-04T16:10:32;9.10;99.90
22680;DHT22;11507;44.858;10.374;2022-12-04T16:13:02;9.00;99.90
22680;DHT22;11507;44.858;10.374;2022-12-04T16:15:40;8.90;99.90
22680;DHT22;11507;44.858;10.374;2022-12-04T16:18:10;8.80;99.90
22680;DHT22;11507;44.858;10.374;2022-12-04T16:20:37;8.60;99.90
22680;DHT22;11507;44.858;10.374;2022-12-04T16:23:05;8.60;99.90
22680;DHT22;11507;44.858;10.374;2022-12-04T16:25:31;8.50;99.90
22680;DHT22;11507;44.858;10.374;2022-12-04T16:27:58;8.40;99.90
22680;DHT22;11507;44.858;10.374;2022-12-04T16:30:25;8.40;99.90
22680;DHT22;11507;44.858;10.374;2022-12-04T16:32:52;8.30;99.90
22680;DHT22;11507;44.858;10.374;2022-12-04T16:35:18;8.30;99.90
22680;DHT22;11507;44.858;10.374;2022-12-04T16:37:45;8.30;99.90
22680;DHT22;11507;44.858;10.374;2022-12-04T16:40:11;8.20;99.90
22680;DHT22;11507;44.858;10.374;2022-12-04T16:42:39;8.20;99.90
22680;DHT22;11507;44.858;10.374;2022-12-04T16:45:33;8.20;99.90
22680;DHT22;11507;44.858;10.374;2022-12-04T16:47:59;8.20;99.90
22680;DHT22;11507;44.858;10.374;2022-12-04T16:50:25;8.20;99.90
22680;DHT22;11507;44.858;10.374;2022-12-04T16:52:52;8.20;99.90
22680;DHT22;11507;44.858;10.374;2022-12-04T16:55:24;8.20;99.90
22680;DHT22;11507;44.858;10.374;2022-12-04T16:57:51;8.10;99.90
22680;DHT22;11507;44.858;10.374;2022-12-04T17:00:17;8.10;99.90
22680;DHT22;11507;44.858;10.374;2022-12-04T17:02:44;8.10;99.90
22680;DHT22;11507;44.858;10.374;2022-12-04T17:05:27;8.00;99.90
22680;DHT22;11507;44.858;10.374;2022-12-04T17:07:54;8.00;99.90
22680;DHT22;11507;44.858;10.374;2022-12-04T17:10:21;8.00;99.90
22680;DHT22;11507;44.858;10.374;2022-12-04T17:12:47;7.90;99.90
22680;DHT22;11507;44.858;10.374;2022-12-04T17:15:14;7.90;99.90
22680;DHT22;11507;44.858;10.374;2022-12-04T17:17:40;7.80;99.90
22680;DHT22;11507;44.858;10.374;2022-12-04T17:20:06;7.80;99.90
22680;DHT22;11507;44.858;10.374;2022-12-04T17:22:33;7.70;99.90
22680;DHT22;11507;44.858;10.374;2022-12-04T17:24:58;7.70;99.90
22680;DHT22;11507;44.858;10.374;2022-12-04T17:27:26;7.60;99.90
22680;DHT22;11507;44.858;10.374;2022-12-04T17:29:52;7.60;99.90
22680;DHT22;11507;44.858;10.374;2022-12-04T17:32:17;7.50;99.90
22680;DHT22;11507;44.858;10.374;2022-12-04T17:34:43;7.40;99.90
22680;DHT22;11507;44.858;10.374;2022-12-04T17:37:09;7.40;99.90
22680;DHT22;11507;44.858;10.374;2022-12-04T17:39:35;7.30;99.90
22680;DHT22;11507;44.858;10.374;2022-12-04T17:42:00;7.30;99.90
22680;DHT22;11507;44.858;10.374;2022-12-04T17:44:26;7.30;99.90
22680;DHT22;11507;44.858;10.374;2022-12-04T17:46:54;7.30;99.90
22680;DHT22;11507;44.858;10.374;2022-12-04T17:49:20;7.20;99.90
22680;DHT22;11507;44.858;10.374;2022-12-04T17:51:46;7.20;99.90
22680;DHT22;11507;44.858;10.374;2022-12-04T17:54:12;7.10;99.90
22680;DHT22;11507;44.858;10.374;2022-12-04T17:56:38;7.00;99.90
22680;DHT22;11507;44.858;10.374;2022-12-04T17:59:04;7.00;99.90
22680;DHT22;11507;44.858;10.374;2022-12-04T18:01:31;6.90;99.90
22680;DHT22;11507;44.858;10.374;2022-12-04T18:03:59;6.90;99.90
22680;DHT22;11507;44.858;10.374;2022-12-04T18:06:34;6.80;99.90
22680;DHT22;11507;44.858;10.374;2022-12-04T18:09:03;6.80;99.90
22680;DHT22;11507;44.858;10.374;2022-12-04T18:11:32;6.70;99.90
22680;DHT22;11507;44.858;10.374;2022-12-04T18:14:04;6.70;99.90
22680;DHT22;11507;44.858;10.374;2022-12-04T18:16:32;6.60;99.90
22680;DHT22;11507;44.858;10.374;2022-12-04T18:19:00;6.70;99.90
22680;DHT22;11507;44.858;10.374;2022-12-04T18:21:27;6.70;99.90
22680;DHT22;11507;44.858;10.374;2022-12-04T18:23:56;6.70;99.90
22680;DHT22;11507;44.858;10.374;2022-12-04T18:26:26;6.60;99.90
22680;DHT22;11507;44.858;10.374;2022-12-04T18:28:56;6.60;99.90
22680;DHT22;11507;44.858;10.374;2022-12-04T18:31:23;6.50;99.90
22680;DHT22;11507;44.858;10.374;2022-12-04T18:33:49;6.50;99.90